Time;durP1;ratioP1;P1;durP2;ratioP2;P2;SDS_P1;SDS_P2;PMS_P1;PMS_P2;Temp;Humidity;BMP_temperature;BMP_pressure;BME280_temperature;BME280_humidity;BME280_pressure;Samples;Min_cycle;Max_cycle;Signal;HPM_P1;HPM_P2
2020/12/25 00:02:24;;;;;;;12.00;7.43;;;4.60;99.90;;;2.33;100.00;99949.88;4984915;28;100028;-64
2020/12/25 00:04:51;;;;;;;11.23;7.10;;;4.60;99.90;;;2.32;100.00;99942.91;4978948;28;100641;-65
2020/12/25 00:07:18;;;;;;;9.43;6.73;;;4.50;99.90;;;2.29;100.00;99943.13;4965101;28;100820;-65
2020/12/25 00:09:44;;;;;;;10.50;7.43;;;4.50;99.90;;;2.27;100.00;99944.19;4964245;28;100539;-65
2020/12/25 00:12:11;;;;;;;10.77;7.60;;;4.60;99.90;;;2.30;100.00;99943.97;4937460;28;100167;-65
2020/12/25 00:14:37;;;;;;;9.03;7.13;;;4.50;99.90;;;2.26;100.00;99953.91;4883080;28;101611;-65
2020/12/25 00:17:04;;;;;;;13.87;7.83;;;4.50;99.90;;;2.28;100.00;99948.50;4883694;28;100555;-64
2020/12/25 00:19:30;;;;;;;19.10;7.47;;;4.60;99.90;;;2.36;100.00;99940.84;4884356;28;100047;-67
2020/12/25 00:21:57;;;;;;;12.27;8.73;;;4.50;99.90;;;2.31;100.00;99948.28;4964722;28;100319;-65
2020/12/25 00:24:24;;;;;;;11.83;8.47;;;5.50;99.90;;;2.26;100.00;99953.06;4903736;28;101184;-65
2020/12/25 00:26:50;;;;;;;10.73;7.53;;;4.50;99.90;;;2.24;100.00;99949.69;4883275;28;101334;-66
2020/12/25 00:29:17;;;;;;;12.03;8.17;;;4.50;99.90;;;2.30;100.00;99959.81;4883373;28;99957;-65
2020/12/25 00:31:45;;;;;;;13.87;8.63;;;4.50;99.90;;;2.31;100.00;99953.56;4883550;28;100210;-65
2020/12/25 00:34:12;;;;;;;12.37;7.87;;;4.50;99.90;;;2.31;100.00;99958.84;4883347;28;101009;-66
2020/12/25 00:36:41;;;;;;;11.17;7.73;;;4.60;99.90;;;2.27;100.00;99966.16;4883880;28;100016;-66
2020/12/25 00:39:11;;;;;;;11.23;8.53;;;4.50;99.90;;;2.26;100.00;99960.97;4865051;28;99898;-66
2020/12/25 00:41:41;;;;;;;13.27;8.33;;;4.50;99.90;;;2.28;100.00;99964.34;4864961;28;100085;-65
2020/12/25 00:44:08;;;;;;;10.80;7.97;;;4.70;99.90;;;2.28;100.00;99964.34;4864037;28;101689;-66
2020/12/25 00:46:36;;;;;;;13.37;8.70;;;4.70;99.90;;;2.26;100.00;99963.63;4846636;28;100140;-65
2020/12/25 00:49:02;;;;;;;12.27;8.63;;;4.60;99.90;;;2.26;100.00;99972.38;4864769;28;100043;-66
2020/12/25 00:51:29;;;;;;;13.97;9.13;;;4.50;99.90;;;2.29;100.00;99972.16;4870389;28;100734;-65
2020/12/25 00:53:56;;;;;;;11.83;8.47;;;4.60;99.90;;;2.26;100.00;99972.38;4883565;28;100864;-66
2020/12/25 00:56:31;;;;;;;14.70;9.07;;;4.50;99.90;;;2.23;100.00;99977.88;4865041;28;100113;-65
2020/12/25 00:58:57;;;;;;;15.07;9.43;;;4.50;99.90;;;2.26;100.00;99975.00;4959558;28;99898;-64
2020/12/25 01:01:28;;;;;;;10.27;7.93;;;4.50;99.90;;;2.24;100.00;99984.84;4956508;28;100063;-65
2020/12/25 01:03:55;;;;;;;11.67;8.53;;;4.40;99.90;;;2.25;100.00;99983.88;4963922;28;101029;-65
2020/12/25 01:06:22;;;;;;;13.40;9.50;;;4.50;99.90;;;2.26;100.00;100003.22;4903830;28;101201;-65
2020/12/25 01:08:50;;;;;;;15.10;8.70;;;4.50;99.90;;;2.33;100.00;99999.19;4882678;28;100080;-65
2020/12/25 01:11:18;;;;;;;14.37;8.80;;;4.50;99.90;;;2.28;100.00;100002.16;4883561;28;100260;-66
2020/12/25 01:13:46;;;;;;;15.83;9.33;;;4.50;99.90;;;2.26;100.00;100003.22;4883087;28;100760;-65
2020/12/25 01:16:15;;;;;;;13.00;9.03;;;4.50;99.90;;;2.26;100.00;100006.69;4882750;28;100664;-65
2020/12/25 01:18:42;;;;;;;12.60;8.63;;;4.50;99.90;;;2.30;100.00;100009.97;4884569;28;100365;-67
2020/12/25 01:21:09;;;;;;;14.13;9.17;;;4.60;99.90;;;2.28;100.00;100015.34;4962203;28;100263;-65
2020/12/25 01:23:36;;;;;;;14.60;9.43;;;4.40;99.90;;;2.30;100.00;100021.38;4967615;28;101242;-66
2020/12/25 01:26:05;;;;;;;12.83;9.33;;;4.50;99.90;;;2.25;100.00;100017.38;4967055;28;100039;-65
2020/12/25 01:28:31;;;;;;;12.50;9.00;;;3.50;99.90;;;2.28;100.00;100019.78;4965567;28;100084;-65
2020/12/25 01:30:59;;;;;;;10.20;7.73;;;4.60;99.90;;;2.29;100.00;100017.03;4967042;28;99990;-65
2020/12/25 01:33:25;;;;;;;14.87;8.77;;;4.50;99.90;;;2.32;100.00;100018.63;4974387;28;101007;-65
2020/12/25 01:35:52;;;;;;;15.30;8.70;;;4.60;99.90;;;2.29;100.00;100024.97;4970240;28;100967;-65
2020/12/25 01:38:18;;;;;;;12.07;8.20;;;4.50;99.90;;;2.31;100.00;100025.69;4967256;28;100139;-66
2020/12/25 01:40:45;;;;;;;15.90;9.87;;;4.50;99.90;;;2.28;100.00;100025.06;4966998;28;100286;-65
2020/12/25 01:43:12;;;;;;;14.10;8.87;;;4.50;99.90;;;2.30;100.00;100023.16;4967245;28;101106;-65
2020/12/25 01:45:39;;;;;;;13.43;9.03;;;4.50;99.90;;;2.23;100.00;100017.47;4966983;28;100328;-65
2020/12/25 01:48:06;;;;;;;11.53;7.90;;;4.60;99.90;;;2.31;100.00;100027.50;4931283;28;100062;-64
2020/12/25 01:50:36;;;;;;;11.57;8.60;;;4.60;99.90;;;2.26;100.00;100024.34;4885271;28;100186;-65
2020/12/25 01:53:08;;;;;;;12.67;8.47;;;5.30;99.90;;;2.28;100.00;100022.44;4885609;28;101748;-66
2020/12/25 01:55:37;;;;;;;14.97;9.40;;;4.60;99.90;;;2.25;100.00;100020.84;4885221;28;101351;-68
2020/12/25 01:58:04;;;;;;;12.80;8.80;;;4.60;99.90;;;2.28;100.00;100028.56;4942449;28;99964;-67
2020/12/25 02:00:31;;;;;;;15.73;9.53;;;4.60;99.90;;;2.29;100.00;100024.97;4985948;28;100069;-67
2020/12/25 02:02:58;;;;;;;12.90;9.17;;;4.60;99.90;;;2.29;100.00;100030.25;4986390;28;101509;-66
2020/12/25 02:05:25;;;;;;;13.33;9.33;;;4.60;99.90;;;2.26;100.00;100027.81;4986217;28;101638;-68
2020/12/25 02:07:55;;;;;;;13.87;9.17;;;4.90;99.90;;;2.29;100.00;100026.75;4986581;28;100089;-67
2020/12/25 02:10:23;;;;;;;12.10;9.03;;;4.60;99.90;;;2.33;100.00;100025.59;4918279;28;100084;-67
2020/12/25 02:12:50;;;;;;;12.77;8.33;;;4.60;99.90;;;2.31;100.00;100025.69;4884775;28;101361;-66
2020/12/25 02:15:17;;;;;;;13.47;9.93;;;4.60;99.90;;;2.19;100.00;100031.88;4888100;28;100592;-66
2020/12/25 02:17:44;;;;;;;12.47;8.83;;;4.60;99.90;;;2.22;100.00;100030.81;4966349;28;100300;-66
2020/12/25 02:20:11;;;;;;;17.37;8.47;;;4.70;99.90;;;2.23;100.00;100035.94;4965440;28;100020;-66
2020/12/25 02:22:39;;;;;;;14.53;9.43;;;4.70;99.90;;;2.25;100.00;100036.69;4966687;28;100958;-68
2020/12/25 02:25:06;;;;;;;13.67;8.63;;;4.70;99.90;;;2.19;100.00;100036.31;4966217;28;100555;-66
2020/12/25 02:27:33;;;;;;;14.13;9.40;;;4.50;99.90;;;2.22;100.00;100039.56;4964869;28;100178;-67
2020/12/25 02:29:59;;;;;;;14.13;9.50;;;5.40;99.90;;;2.22;100.00;100039.56;4961958;28;100081;-66
2020/12/25 02:32:26;;;;;;;13.17;8.00;;;4.50;99.90;;;2.25;100.00;100038.47;4969809;28;100234;-65
2020/12/25 02:34:53;;;;;;;11.53;8.67;;;4.60;99.90;;;2.27;100.00;100044.50;4965298;28;101077;-64
2020/12/25 02:37:19;;;;;;;11.00;8.60;;;5.40;99.90;;;2.24;100.00;100048.19;4966606;28;100131;-66
2020/12/25 02:39:47;;;;;;;12.63;7.93;;;4.50;99.90;;;2.21;100.00;100044.97;4966635;28;100069;-64
2020/12/25 02:42:14;;;;;;;14.30;8.63;;;4.60;99.90;;;2.21;100.00;100048.44;4965631;28;101360;-65
2020/12/25 02:44:42;;;;;;;15.17;8.97;;;4.50;99.90;;;2.23;100.00;100049.16;4921221;28;100876;-65
2020/12/25 02:47:10;;;;;;;10.73;8.07;;;4.60;99.90;;;2.27;100.00;100058.53;4884052;28;100060;-65
2020/12/25 02:49:37;;;;;;;10.40;7.47;;;4.50;99.90;;;2.28;100.00;100052.31;4884260;28;100150;-62
2020/12/25 02:52:04;;;;;;;10.90;7.73;;;4.50;99.90;;;2.30;100.00;100057.47;4884233;28;101076;-64
2020/12/25 02:54:31;;;;;;;10.30;7.13;;;4.40;99.90;;;2.30;100.00;100058.34;4884968;28;100302;-65
2020/12/25 02:56:59;;;;;;;14.03;8.23;;;4.80;99.90;;;2.30;100.00;100066.25;4895321;28;100051;-65
2020/12/25 02:59:26;;;;;;;9.20;6.43;;;4.50;99.90;;;2.30;100.00;100068.88;4985458;28;100514;-65
2020/12/25 03:01:53;;;;;;;10.70;6.40;;;4.60;99.90;;;2.28;100.00;100068.16;4985199;28;101761;-65
2020/12/25 03:04:20;;;;;;;8.53;6.87;;;5.80;99.90;;;2.31;100.00;100075.00;4986059;28;101276;-64
2020/12/25 03:06:47;;;;;;;9.27;6.27;;;4.60;99.90;;;2.32;100.00;100076.69;4985601;28;100239;-64
2020/12/25 03:09:14;;;;;;;12.23;6.67;;;4.80;99.90;;;2.32;100.00;100081.97;4985937;28;100088;-64
2020/12/25 03:11:41;;;;;;;11.60;6.23;;;4.70;99.90;;;2.31;100.00;100085.56;4975532;28;100918;-64
2020/12/25 03:14:08;;;;;;;8.40;5.80;;;4.70;99.90;;;2.32;100.00;100085.47;4884687;28;100591;-64
2020/12/25 03:16:35;;;;;;;5.93;4.80;;;4.70;99.90;;;2.28;100.00;100085.78;4884226;28;100036;-65
2020/12/25 03:19:01;;;;;;;6.67;4.57;;;5.50;99.90;;;2.31;100.00;100089.06;4884872;28;99967;-65
2020/12/25 03:21:28;;;;;;;7.50;4.97;;;4.80;99.90;;;2.22;100.00;100092.38;4883830;28;100991;-65
2020/12/25 03:23:54;;;;;;;5.63;4.37;;;4.70;99.90;;;2.15;100.00;100086.66;4885235;28;100355;-64
2020/12/25 03:26:20;;;;;;;6.33;4.70;;;4.80;99.90;;;2.14;100.00;100094.69;4884568;28;100334;-65
2020/12/25 03:28:47;;;;;;;7.03;4.53;;;4.80;99.90;;;2.12;100.00;100094.81;4885308;28;100332;-65
2020/12/25 03:31:14;;;;;;;5.10;3.97;;;4.60;99.90;;;2.15;100.00;100099.88;4883779;28;101246;-65
2020/12/25 03:33:41;;;;;;;6.00;3.83;;;4.70;99.90;;;2.15;100.00;100101.66;4884247;28;101270;-65
2020/12/25 03:36:07;;;;;;;7.07;5.07;;;4.60;99.90;;;2.14;100.00;100099.97;4883350;28;100063;-65
2020/12/25 03:38:34;;;;;;;7.70;3.93;;;4.70;99.90;;;2.11;100.00;100094.91;4885030;28;100197;-65
2020/12/25 03:41:02;;;;;;;6.50;4.27;;;4.60;99.90;;;2.18;100.00;100098.81;4884736;28;101375;-65
2020/12/25 03:43:29;;;;;;;6.20;4.47;;;4.60;99.90;;;2.17;100.00;100095.31;4884376;28;100214;-66
2020/12/25 03:45:55;;;;;;;5.73;3.87;;;5.60;99.90;;;2.08;100.00;100095.16;4883847;28;100028;-65
2020/12/25 03:48:23;;;;;;;6.10;3.73;;;4.50;99.90;;;2.01;100.00;100091.25;4903256;28;100073;-65
2020/12/25 03:50:49;;;;;;;4.97;3.60;;;4.40;99.90;;;2.01;100.00;100097.38;4917507;28;100920;-65
2020/12/25 03:53:16;;;;;;;7.70;3.70;;;4.60;99.90;;;2.09;100.00;100107.41;4897826;28;101434;-65
2020/12/25 03:55:42;;;;;;;4.23;3.50;;;4.60;99.90;;;1.99;100.00;100096.63;4964739;28;100196;-65
2020/12/25 03:58:09;;;;;;;6.23;3.77;;;4.60;99.90;;;2.01;100.00;100115.00;4977416;28;100203;-65
2020/12/25 04:00:35;;;;;;;6.07;3.73;;;4.60;99.90;;;2.07;100.00;100111.94;4983664;28;101005;-66
2020/12/25 04:03:02;;;;;;;6.97;3.87;;;4.50;99.90;;;2.04;100.00;100115.63;4985402;28;100305;-65
2020/12/25 04:05:29;;;;;;;5.73;3.50;;;4.40;99.90;;;1.96;100.00;100107.41;4984778;28;100369;-65
2020/12/25 04:07:55;;;;;;;6.43;3.83;;;4.60;99.90;;;1.95;100.00;100116.28;4945221;28;100092;-66
2020/12/25 04:10:22;;;;;;;6.43;3.33;;;4.60;99.90;;;1.98;100.00;100117.88;4883869;28;101099;-66
2020/12/25 04:12:48;;;;;;;4.30;3.37;;;4.50;99.90;;;1.96;100.00;100123.25;4883333;28;101391;-70
2020/12/25 04:15:15;;;;;;;4.40;3.60;;;4.60;99.90;;;1.95;100.00;100124.19;4883776;28;100061;-66
2020/12/25 04:17:41;;;;;;;5.80;3.50;;;4.60;99.90;;;1.92;100.00;100120.91;4883923;28;100323;-65
2020/12/25 04:20:08;;;;;;;4.23;3.10;;;4.40;99.90;;;1.97;100.00;100118.81;4882991;28;100717;-66
2020/12/25 04:22:36;;;;;;;6.47;3.43;;;4.40;99.90;;;1.95;100.00;100124.19;4883060;28;101012;-66
2020/12/25 04:25:02;;;;;;;3.60;3.07;;;4.50;99.90;;;1.92;100.00;100129.69;4883315;28;100124;-66
2020/12/25 04:27:29;;;;;;;4.87;3.37;;;4.50;99.90;;;1.91;100.00;100127.16;4883421;28;100122;-65
2020/12/25 04:29:55;;;;;;;4.23;3.47;;;4.40;99.90;;;1.96;100.00;100123.25;4942733;28;100694;-65
2020/12/25 04:32:22;;;;;;;5.07;3.57;;;4.60;99.90;;;1.80;100.00;100130.53;4964287;28;100566;-65
2020/12/25 04:34:48;;;;;;;3.87;3.43;;;4.40;99.90;;;1.93;100.00;100127.88;4964240;28;100482;-65
2020/12/25 04:37:15;;;;;;;5.00;3.27;;;4.40;99.90;;;1.84;100.00;100125.91;4894367;28;100165;-65
2020/12/25 04:39:42;;;;;;;4.03;2.47;;;4.50;99.90;;;1.85;100.00;100131.06;4883123;28;101311;-65
2020/12/25 04:42:12;;;;;;;4.10;3.20;;;4.50;99.90;;;1.81;100.00;100140.13;4883284;28;101221;-66
2020/12/25 04:44:39;;;;;;;5.43;2.83;;;4.50;99.90;;;1.85;100.00;100140.78;4883324;28;100450;-65
2020/12/25 04:47:09;;;;;;;5.17;3.33;;;4.50;99.90;;;1.88;100.00;100140.53;4883179;28;100185;-66
2020/12/25 04:49:37;;;;;;;4.13;3.30;;;4.40;99.90;;;1.90;100.00;100141.28;4882375;28;101278;-64
2020/12/25 04:52:05;;;;;;;4.57;3.00;;;4.50;99.90;;;1.91;100.00;100138.53;4882288;28;100468;-65
2020/12/25 04:54:33;;;;;;;5.10;3.50;;;4.50;99.90;;;1.81;100.00;100140.13;4883044;28;100203;-66
2020/12/25 04:57:00;;;;;;;4.13;2.77;;;4.50;99.90;;;1.80;100.00;100144.56;4895842;28;99940;-65
2020/12/25 04:59:27;;;;;;;6.90;3.30;;;4.50;99.90;;;1.87;100.00;100150.25;4983580;28;101050;-65
2020/12/25 05:01:55;;;;;;;4.47;3.17;;;4.40;99.90;;;1.89;100.00;100153.63;4983734;28;100604;-67
2020/12/25 05:04:23;;;;;;;4.10;3.60;;;4.40;99.90;;;1.84;100.00;100155.75;4984649;28;100176;-67
2020/12/25 05:06:51;;;;;;;5.30;3.33;;;5.80;99.90;;;1.87;100.00;100157.31;4965543;28;100018;-65
2020/12/25 05:09:21;;;;;;;4.93;2.80;;;4.40;99.90;;;1.85;100.00;100161.88;4963979;28;101064;-65
2020/12/25 05:11:52;;;;;;;5.47;3.57;;;4.50;99.90;;;1.82;100.00;100160.28;4963357;28;100372;-65
2020/12/25 05:14:24;;;;;;;3.70;2.70;;;4.50;99.90;;;1.80;100.00;100167.47;4915967;28;100010;-66
2020/12/25 05:16:55;;;;;;;6.30;3.00;;;4.40;99.90;;;1.85;100.00;100170.66;4882780;28;100078;-65
2020/12/25 05:19:26;;;;;;;3.70;3.10;;;4.50;99.90;;;1.85;100.00;100173.28;4885685;28;100979;-66
2020/12/25 05:21:56;;;;;;;4.70;2.70;;;4.40;99.90;;;1.76;100.00;100172.09;4890770;28;100279;-64
2020/12/25 05:24:22;;;;;;;5.53;2.70;;;4.40;99.90;;;1.80;100.00;100178.03;4886696;28;100115;-67
2020/12/25 05:26:53;;;;;;;3.03;2.70;;;4.70;99.90;;;1.82;100.00;100185.84;4882787;28;99975;-66
2020/12/25 05:29:23;;;;;;;2.57;2.33;;;4.50;99.90;;;1.81;100.00;100182.34;4883223;28;101312;-66
2020/12/25 05:31:50;;;;;;;3.20;2.87;;;4.30;99.90;;;1.82;100.00;100188.47;4865329;28;103443;-66
2020/12/25 05:34:18;;;;;;;3.80;2.53;;;4.20;99.90;;;1.83;100.00;100191.00;4896599;28;100013;-65
2020/12/25 05:36:50;;;;;;;3.23;2.70;;;4.40;99.90;;;1.84;100.00;100194.50;4963625;28;100067;-66
2020/12/25 05:39:27;;;;;;;2.97;2.43;;;4.40;99.90;;;1.80;100.00;100197.34;4963281;28;101330;-66
2020/12/25 05:41:57;;;;;;;4.77;2.90;;;4.30;99.90;;;1.83;100.00;100200.72;4962446;28;100614;-67
2020/12/25 05:44:27;;;;;;;4.43;3.07;;;4.30;99.90;;;1.82;100.00;100201.66;4963591;28;100253;-66
2020/12/25 05:46:57;;;;;;;3.20;2.80;;;4.40;99.90;;;1.81;100.00;100211.38;4944971;28;100523;-67
2020/12/25 05:49:27;;;;;;;5.10;2.77;;;4.30;99.90;;;1.78;100.00;100211.56;4963471;28;100142;-66
2020/12/25 05:51:54;;;;;;;5.00;3.37;;;4.50;99.90;;;1.76;100.00;100213.47;4963075;28;101024;-66
2020/12/25 05:54:23;;;;;;;3.63;2.60;;;4.40;99.90;;;1.78;100.00;100215.06;4963934;28;99967;-66
2020/12/25 05:56:52;;;;;;;3.63;2.43;;;4.30;99.90;;;1.74;100.00;100220.63;4964846;28;100558;-67
2020/12/25 05:59:25;;;;;;;4.13;2.67;;;4.20;99.90;;;1.79;100.00;100219.38;4983496;28;100277;-66
2020/12/25 06:01:57;;;;;;;4.13;2.77;;;4.40;99.90;;;1.77;100.00;100223.91;4975238;28;101014;-65
2020/12/25 06:04:25;;;;;;;4.00;2.80;;;4.30;99.90;;;1.77;100.00;100229.19;4910735;27;100120;-67
2020/12/25 06:06:53;;;;;;;4.27;2.57;;;4.30;99.90;;;1.75;100.00;100233.72;4876866;28;100023;-66
2020/12/25 06:09:21;;;;;;;2.63;2.40;;;4.20;99.90;;;1.78;100.00;100238.78;4968110;28;100455;-66
2020/12/25 06:11:50;;;;;;;5.53;2.80;;;5.40;99.90;;;1.77;100.00;100242.38;4985765;28;100470;-66
2020/12/25 06:14:18;;;;;;;3.00;2.40;;;4.30;99.90;;;1.76;100.00;100240.69;4987339;28;99874;-66
2020/12/25 06:17:00;;;;;;;4.67;2.90;;;4.20;99.90;;;1.63;100.00;100254.78;4986571;28;99977;-65
2020/12/25 06:19:38;;;;;;;5.07;2.87;;;4.20;99.90;;;1.61;100.00;100259.31;4967778;28;101456;-66
2020/12/25 06:22:09;;;;;;;3.17;2.70;;;4.30;99.90;;;1.60;100.00;100265.56;4898572;28;100444;-67
2020/12/25 06:24:38;;;;;;;5.07;2.93;;;4.50;99.90;;;1.62;100.00;100267.13;4884654;28;99936;-64
2020/12/25 06:27:06;;;;;;;4.53;3.00;;;4.10;99.90;;;1.60;100.00;100276.13;4884695;28;100421;-64
2020/12/25 06:29:32;;;;;;;4.60;3.00;;;4.10;99.90;;;1.65;100.00;100274.00;4884363;28;100027;-65
2020/12/25 06:32:05;;;;;;;4.47;3.30;;;4.90;99.90;;;1.61;100.00;100276.00;4958606;28;100715;-65
2020/12/25 06:34:44;;;;;;;6.17;3.17;;;4.10;99.90;;;1.64;100.00;100283.72;4966616;28;100049;-65
2020/12/25 06:37:13;;;;;;;3.67;3.20;;;4.00;99.90;;;1.65;100.00;100285.41;4966551;28;100127;-65
2020/12/25 06:39:48;;;;;;;3.70;3.03;;;4.00;99.90;;;1.62;100.00;100287.38;4947662;28;102194;-65
2020/12/25 06:42:14;;;;;;;3.30;3.00;;;4.10;99.90;;;1.59;100.00;100291.09;4966419;28;100352;-65
2020/12/25 06:44:48;;;;;;;3.93;3.23;;;4.00;99.90;;;1.60;100.00;100284.03;4958288;28;99897;-65
2020/12/25 06:47:28;;;;;;;5.03;2.97;;;4.00;99.90;;;1.56;100.00;100288.66;4939881;28;100383;-65
2020/12/25 06:49:56;;;;;;;4.33;2.97;;;4.00;99.90;;;1.57;100.00;100302.69;4986693;28;100823;-65
2020/12/25 06:52:28;;;;;;;4.93;2.77;;;4.00;99.90;;;1.59;100.00;100303.44;4886700;28;100703;-65
2020/12/25 06:54:55;;;;;;;3.30;2.37;;;3.90;99.90;;;1.56;100.00;100306.28;4884164;28;100084;-65
2020/12/25 06:57:26;;;;;;;4.57;3.23;;;4.00;99.90;;;1.63;100.00;100308.41;4913033;28;100186;-65
2020/12/25 06:59:53;;;;;;;4.17;2.87;;;4.00;99.90;;;1.50;100.00;100312.78;4966653;28;103412;-65
2020/12/25 07:02:21;;;;;;;3.20;2.53;;;3.90;99.90;;;1.50;100.00;100328.59;4936074;28;100417;-66
2020/12/25 07:04:50;;;;;;;3.30;2.20;;;3.90;99.90;;;1.49;100.00;100333.97;4964849;28;100282;-65
2020/12/25 07:07:20;;;;;;;4.57;2.70;;;3.90;99.90;;;1.41;100.00;100332.69;4971563;28;99967;-66
2020/12/25 07:09:48;;;;;;;2.47;2.10;;;4.00;99.90;;;1.35;100.00;100338.38;4884630;28;99929;-65
2020/12/25 07:12:21;;;;;;;3.20;2.90;;;3.90;99.90;;;1.39;100.00;100355.66;4884322;28;101279;-66
2020/12/25 07:14:48;;;;;;;4.60;2.70;;;3.80;99.90;;;1.30;100.00;100353.63;4903629;28;100161;-66
2020/12/25 07:17:15;;;;;;;2.63;2.03;;;3.80;99.90;;;1.33;100.00;100363.97;4985204;28;100071;-65
2020/12/25 07:19:43;;;;;;;4.97;3.33;;;3.80;99.90;;;1.33;100.00;100358.72;4985024;28;100924;-67
2020/12/25 07:22:11;;;;;;;2.53;2.33;;;4.20;99.90;;;1.33;100.00;100365.78;4985502;28;99833;-66
2020/12/25 07:24:38;;;;;;;2.63;1.97;;;3.80;99.90;;;1.34;100.00;100373.59;4978144;28;100070;-66
2020/12/25 07:27:05;;;;;;;5.90;2.90;;;3.70;99.90;;;1.34;100.00;100384.13;4916437;28;100185;-65
2020/12/25 07:29:33;;;;;;;4.60;3.30;;;3.70;99.90;;;1.33;100.00;100378.94;4982393;28;101153;-65
2020/12/25 07:31:59;;;;;;;3.70;2.53;;;3.80;99.90;;;1.30;100.00;100377.34;4960678;28;100652;-66
2020/12/25 07:34:27;;;;;;;6.33;4.77;;;3.60;99.90;;;1.31;100.00;100386.09;4962951;28;100277;-65
2020/12/25 07:36:55;;;;;;;5.43;3.30;;;4.40;99.90;;;1.34;100.00;100385.91;4903717;28;100191;-65
2020/12/25 07:39:24;;;;;;;3.63;3.00;;;3.60;99.90;;;1.28;100.00;100395.03;4880448;28;101818;-65
2020/12/25 07:41:51;;;;;;;4.27;3.10;;;3.50;99.90;;;1.28;100.00;100395.03;4877256;28;100085;-66
2020/12/25 07:44:18;;;;;;;6.87;3.40;;;4.50;99.90;;;1.28;100.00;100405.59;4950300;28;99993;-65
2020/12/25 07:46:45;;;;;;;2.50;2.30;;;3.80;99.90;;;1.30;100.00;100401.06;4982687;28;100171;-65
2020/12/25 07:49:13;;;;;;;3.90;2.10;;;3.80;99.90;;;1.28;100.00;100399.47;4982209;28;100349;-65
2020/12/25 07:51:39;;;;;;;4.60;2.17;;;3.80;99.90;;;1.28;100.00;100405.59;4981773;28;102312;-65
2020/12/25 07:54:07;;;;;;;3.43;1.90;;;3.60;99.90;;;1.34;100.00;100404.38;4982756;28;100030;-64
2020/12/25 07:56:36;;;;;;;2.43;1.50;;;3.70;99.90;;;1.33;100.00;100410.59;4982551;28;100320;-65
2020/12/25 07:59:04;;;;;;;3.40;2.20;;;3.80;99.90;;;1.31;100.00;100412.47;4976336;28;100973;-65
2020/12/25 08:01:37;;;;;;;3.13;1.87;;;4.80;99.90;;;1.29;100.00;100419.63;4880888;28;101240;-65
2020/12/25 08:04:05;;;;;;;2.60;2.00;;;4.70;99.90;;;1.31;100.00;100423.00;4864124;28;99888;-65
2020/12/25 08:06:34;;;;;;;3.57;1.57;;;4.60;99.90;;;1.34;100.00;100418.41;4863696;28;100161;-66
2020/12/25 08:09:06;;;;;;;2.20;1.60;;;3.80;99.90;;;1.36;100.00;100419.13;4881805;28;100855;-65
2020/12/25 08:11:34;;;;;;;4.27;1.73;;;3.60;99.90;;;1.40;100.00;100431.19;4882053;28;99860;-65
2020/12/25 08:14:06;;;;;;;3.47;2.03;;;3.60;99.90;;;1.44;100.00;100430.06;4882026;28;99916;-66
2020/12/25 08:16:36;;;;;;;2.90;1.90;;;3.80;99.90;;;1.41;100.00;100430.25;4916650;28;100479;-65
2020/12/25 08:19:03;;;;;;;3.87;2.47;;;3.80;99.90;;;1.46;100.00;100439.66;4881160;28;100008;-65
2020/12/25 08:21:31;;;;;;;2.50;2.10;;;3.80;99.90;;;1.42;100.00;100439.84;4980678;28;99867;-64
2020/12/25 08:23:58;;;;;;;2.13;1.93;;;3.80;99.90;;;1.44;100.00;100437.13;4936930;28;100117;-64
2020/12/25 08:26:30;;;;;;;3.67;2.10;;;3.80;99.90;;;1.40;100.00;100436.44;4002302;28;10000575;-65
2020/12/25 08:28:58;;;;;;;2.39;1.46;;;4.00;99.90;;;1.37;100.00;100447.19;3988574;28;10000939;-65
2020/12/25 08:31:26;;;;;;;2.60;1.63;;;4.90;99.90;;;1.23;100.00;100449.00;4862262;28;107509;-61
2020/12/25 08:33:54;;;;;;;3.00;1.50;;;3.80;99.90;;;1.33;100.00;100450.97;4861883;28;99913;-63
2020/12/25 08:36:21;;;;;;;4.60;1.70;;;3.90;99.90;;;1.33;100.00;100460.66;4862873;28;100057;-63
2020/12/25 08:38:48;;;;;;;2.63;1.90;;;3.80;99.90;;;1.39;100.00;100468.19;4863582;28;100164;-64
2020/12/25 08:41:15;;;;;;;1.70;1.60;;;3.90;99.90;;;1.23;100.00;100467.47;4861203;28;100888;-65
2020/12/25 08:43:44;;;;;;;5.27;2.00;;;3.80;99.90;;;1.18;100.00;100470.38;4863340;28;100009;-63
2020/12/25 08:46:21;;;;;;;3.17;1.67;;;3.70;99.90;;;1.10;100.00;100472.63;4926718;28;100517;-64
2020/12/25 08:48:52;;;;;;;1.87;1.60;;;3.80;99.90;;;1.10;100.00;100484.97;4921834;28;101113;-65
2020/12/25 08:51:19;;;;;;;2.73;2.00;;;3.60;99.90;;;1.08;100.00;100482.41;4863235;28;100501;-64
2020/12/25 08:53:53;;;;;;;2.77;2.47;;;3.70;99.90;;;1.16;100.00;100480.16;4863010;28;100314;-69
2020/12/25 08:56:21;;;;;;;2.17;1.93;;;3.80;99.90;;;1.13;100.00;100485.59;4863990;28;99689;-68
2020/12/25 08:58:59;;;;;;;2.50;2.13;;;4.20;99.90;;;1.20;100.00;100489.56;4862239;28;99916;-69
2020/12/25 09:01:28;;;;;;;1.50;1.40;;;3.60;99.90;;;1.21;100.00;100498.34;4862620;28;100487;-67
2020/12/25 09:03:56;;;;;;;2.50;2.13;;;3.70;99.90;;;1.20;100.00;100512.44;4862879;28;100136;-64
2020/12/25 09:06:23;;;;;;;2.87;2.00;;;3.80;99.90;;;1.12;100.00;100501.50;4862065;28;100309;-65
2020/12/25 09:08:50;;;;;;;2.10;1.80;;;3.80;99.90;;;1.07;100.00;100507.91;4860606;28;102754;-64
2020/12/25 09:11:19;;;;;;;2.07;1.87;;;3.70;99.90;;;1.10;100.00;100519.22;4862622;28;100006;-65
2020/12/25 09:13:47;;;;;;;1.67;1.00;;;3.60;99.90;;;0.88;100.00;100522.28;4862904;28;99909;-64
2020/12/25 09:16:14;;;;;;;1.60;1.50;;;3.80;99.90;;;0.92;100.00;100522.00;4861479;28;99676;-64
2020/12/25 09:18:42;;;;;;;3.17;1.87;;;3.70;99.90;;;1.16;100.00;100518.84;4863713;28;100172;-64
2020/12/25 09:21:10;;;;;;;2.20;1.40;;;3.90;99.90;;;1.17;100.00;100528.44;4908580;28;100453;-64
2020/12/25 09:23:38;;;;;;;2.53;1.30;;;3.50;99.90;;;1.25;100.00;100542.00;4865563;28;100068;-66
2020/12/25 09:26:07;;;;;;;2.40;1.60;;;3.70;99.90;;;1.23;100.00;100534.22;4861189;28;100131;-64
2020/12/25 09:28:34;;;;;;;1.40;1.03;;;3.60;99.90;;;1.19;100.00;100539.75;4863934;28;100782;-66
2020/12/25 09:31:04;;;;;;;2.30;1.37;;;4.40;99.90;;;1.16;100.00;100542.56;4861126;28;100958;-67
2020/12/25 09:33:30;;;;;;;2.03;1.27;;;3.80;99.90;;;1.24;100.00;100548.19;4918086;28;100079;-64
2020/12/25 09:35:58;;;;;;;1.50;1.30;;;3.80;99.90;;;1.50;100.00;100551.91;4911260;28;100086;-63
2020/12/25 09:38:25;;;;;;;2.37;1.00;;;4.00;99.90;;;1.54;100.00;100543.72;4860714;28;101412;-64
2020/12/25 09:40:52;;;;;;;1.10;1.00;;;4.60;99.90;;;1.50;100.00;100547.47;4861567;28;100948;-64
2020/12/25 09:43:19;;;;;;;1.90;0.90;;;4.10;99.90;;;1.52;100.00;100550.88;4864965;28;100068;-64
2020/12/25 09:45:46;;;;;;;3.00;1.20;;;4.30;99.90;;;1.49;100.00;100547.56;4863713;28;100058;-64
2020/12/25 09:48:13;;;;;;;1.87;1.40;;;4.30;99.90;;;1.53;100.00;100554.34;4861286;28;101455;-65
2020/12/25 09:50:42;;;;;;;1.37;1.23;;;4.50;99.90;;;1.59;100.00;100560.13;4863850;28;100856;-65
2020/12/25 09:53:10;;;;;;;1.93;1.47;;;4.50;99.90;;;1.69;100.00;100553.31;4863935;28;100102;-64
2020/12/25 09:55:38;;;;;;;1.77;1.50;;;4.50;99.90;;;1.59;100.00;100554.84;4863848;28;100565;-65
2020/12/25 09:58:05;;;;;;;1.60;1.17;;;4.50;99.90;;;1.37;100.00;100557.06;4863892;28;101427;-65
2020/12/25 10:00:32;;;;;;;2.20;1.40;;;4.60;99.90;;;1.51;100.00;100567.63;4862563;28;100576;-65
2020/12/25 10:02:59;;;;;;;1.93;1.40;;;4.60;99.90;;;1.56;100.00;100564.72;4861420;28;100099;-65
2020/12/25 10:05:28;;;;;;;2.07;1.13;;;4.50;99.90;;;1.65;100.00;100561.50;4863834;28;100306;-63
2020/12/25 10:07:55;;;;;;;1.60;1.43;;;4.50;99.90;;;1.76;100.00;100559.91;4846420;28;101725;-64
2020/12/25 10:10:24;;;;;;;2.47;1.37;;;4.40;99.90;;;1.91;100.00;100562.53;4863821;28;100274;-63
2020/12/25 10:12:53;;;;;;;1.30;1.20;;;4.60;99.90;;;1.72;100.00;100566.31;4846213;28;100484;-66
2020/12/25 10:15:19;;;;;;;1.20;1.07;;;4.60;99.90;;;1.62;100.00;100569.59;4863986;28;99978;-65
2020/12/25 10:17:46;;;;;;;2.53;1.93;;;4.70;99.90;;;1.49;100.00;100569.50;4863310;28;101164;-65